Arlington, Kansas
Current Conditions -  °F | °C
As of 8:52 PM on Tuesday 25 Nov 2014 (Local Time) from KHUT Reporting Station
Broken Clouds Broken Clouds  
Wind Chill: 37°   Ceiling: 12000
Heat Index: 44°   Visibility: 10mi
Dew Point: 28°   Wind: 15mph
Humidity: 53%   Direction: 170°S
Pressure: 29.96"   Gusts: NA
Location:  37.9°N, 98.18°W
Report Text: KHUT 260252Z 17013KT 10SM BKN120 07/M02 A2996 RMK AO2 SLP146 T00671022 58010
Loading
Personal Weather Stations






























Interactive Weather Map New forecast layout! Learn more

10-Day Weather Forecast

Advertisements
Track Severe Weather on mobile